Spaceon02064 — ASD — position and weather

sailwx.info

Track history (hours):
 
Tides and Currents Weather Stations Pressure Air Temp Water Temp Dewpoint Dewpoint Depression Visibility Wind Speed Wind Dir Waves Ship Positions

Spaceon02064

Last reported at 2014-Sep-22 21:31 UTC. Time now 2014-Sep-22 22:20 UTC.
Position N 37°44' E 121°15'.

Length 6 m.

Type: Ship. MMSI: 200902064.

Date/timePositionNaut miles runAvg speedWind from/ knotsBaromVisibWave heightAir tempDewpointWater temp
2014-Sep-22 21:31N 37°44' E 121°15'3514915.0
2014-Sep-22 21:27N 31°57' E 120°07'353396.6
2014-Sep-22 20:33N 37°45' E 121°21'35363561.6
2014-Sep-22 20:33N 31°57' E 120°12'354355.6
2014-Sep-22 19:33N 37°45' E 121°25'35184314.4
2014-Sep-22 19:33N 31°58' E 120°18'5 5.4
2014-Sep-22 18:33N 32°00' E 120°24'3495044.9
2014-Sep-22 18:29N 37°45' E 121°30'346372.2
2014-Sep-22 17:34N 32°02' E 120°30'34617805.6
2014-Sep-22 17:32N 37°44' E 121°34'347351.8
2014-Sep-22 16:33N 32°01' E 120°36'34724525.7
2014-Sep-22 16:32N 37°44' E 121°38'3 3.5
2014-Sep-22 15:33N 37°43' E 121°43'3463029.8
2014-Sep-22 15:27N 32°01' E 120°43'3 3.9
2014-Sep-22 14:33N 32°01' E 120°47'3401225153.4
2014-Sep-22 14:33N 37°38' E 121°42'4 3.7
2014-Sep-22 13:33N 37°38' E 121°37'37679654.7
2014-Sep-22 13:33N 31°22' E 121°30'5321138.6
2014-Sep-22 13:33N 32°01' E 120°48'0 0.0
2014-Sep-22 12:33N 32°01' E 120°48'34032183.1
2014-Sep-22 12:32N 37°39' E 121°33'3 3.5
2014-Sep-22 11:33N 37°39' E 121°29'34061190.0
2014-Sep-22 11:33N 32°01' E 120°48'340341.6
2014-Sep-22 10:33N 37°39' E 121°24'34071908.4
2014-Sep-22 10:33N 32°01' E 120°48'588406.6
2014-Sep-22 10:33N 31°15' E 121°29'5858.4
2014-Sep-22 09:33N 32°01' E 120°48'34064391.2
2014-Sep-22 09:32N 37°40' E 121°19'340345.3
2014-Sep-22 08:33N 32°01' E 120°48'1 1.1
2014-Sep-22 07:33N 32°00' E 120°49'23 5.7
2014-Sep-22 03:33N 31°43' E 121°08'24 5.8
2014-Sep-21 23:31N 31°28' E 121°28'3 3.0
2014-Sep-21 22:27N 31°25' E 121°31'378418.3
2014-Sep-21 21:32N 37°43' E 121°12'37912999.1
2014-Sep-21 21:31N 31°24' E 121°31'383401.3
2014-Sep-21 20:33N 37°47' E 121°23'3835699.4
2014-Sep-21 20:29N 31°24' E 121°31'0 0.0
2014-Sep-21 19:31N 31°24' E 121°31'3837380.8
2014-Sep-21 19:28N 37°48' E 121°29'3 3.1
2014-Sep-21 18:31N 37°47' E 121°32'3824012.8
2014-Sep-21 18:26N 31°24' E 121°31'381437.3
2014-Sep-21 17:33N 37°46' E 121°36'381457420.9
2014-Sep-21 17:33N 31°24' E 121°31'381381.7
2014-Sep-21 16:33N 37°46' E 121°34'38157210.8
2014-Sep-21 16:33N 31°24' E 121°31'4 3.7
2014-Sep-21 15:33N 31°22' E 121°28'3844574.8
2014-Sep-21 15:28N 37°45' E 121°33'7 7.7
2014-Sep-21 14:33N 37°39' E 121°30'377226368.9
2014-Sep-21 14:33N 31°21' E 121°27'0 0.0
2014-Sep-21 13:33N 31°21' E 121°27'37779845.4
2014-Sep-21 13:33N 37°38' E 121°33'377374.7
2014-Sep-21 12:33N 31°21' E 121°27'377193887.6
2014-Sep-21 12:33N 37°38' E 121°32'377379.8
2014-Sep-21 11:33N 31°21' E 121°27'37723785.8
2014-Sep-21 11:32N 37°38' E 121°27'4 3.6
2014-Sep-21 10:33N 37°38' E 121°23'37715603.0
2014-Sep-21 10:32N 31°21' E 121°27'0 0.0
2014-Sep-21 09:33N 31°21' E 121°27'37954509.0
2014-Sep-21 09:33N 37°40' E 121°18'379383.2
2014-Sep-21 08:33N 31°21' E 121°27'381767.5
2014-Sep-21 08:04N 37°42' E 121°09'381754.8
2014-Sep-21 07:33N 31°21' E 121°27'3818252.9
2014-Sep-21 07:31N 37°42' E 121°09'381396.9
2014-Sep-21 06:33N 31°21' E 121°27'3812681.0
2014-Sep-21 06:25N 37°42' E 121°09'381446.4
2014-Sep-21 05:33N 31°21' E 121°27'3818011.6
2014-Sep-21 05:31N 37°42' E 121°09'381399.4
2014-Sep-21 04:33N 31°21' E 121°27'0 0.0
2014-Sep-21 03:33N 31°21' E 121°27'0 0.0
2014-Sep-21 02:32N 31°21' E 121°27'0 0.0
2014-Sep-21 01:32N 31°21' E 121°27'0 0.0
2014-Sep-21 00:33N 31°21' E 121°27'0 0.0
2014-Sep-20 23:33N 31°21' E 121°27'0 0.0
2014-Sep-20 22:32N 31°21' E 121°27'0 0.1
2014-Sep-20 21:33N 31°21' E 121°27'0 0.0
2014-Sep-20 20:33N 31°21' E 121°27'38112697.3
2014-Sep-20 20:31N 37°42' E 121°14'381395.0
2014-Sep-20 19:33N 31°21' E 121°27'38135129.6
2014-Sep-20 19:33N 37°42' E 121°18'381384.6
2014-Sep-20 18:33N 31°21' E 121°27'380228217.1
2014-Sep-20 18:33N 37°42' E 121°22'380381.1
2014-Sep-20 17:33N 31°21' E 121°27'379170536.8
2014-Sep-20 17:33N 37°40' E 121°25'379377.7
2014-Sep-20 16:33N 31°21' E 121°27'37917289.0
2014-Sep-20 16:32N 37°41' E 121°22'379390.1
2014-Sep-20 15:33N 31°22' E 121°28'379195037.8
2014-Sep-20 15:33N 37°41' E 121°23'379378.4
2014-Sep-20 14:33N 31°22' E 121°28'377226218.9
2014-Sep-20 14:33N 37°39' E 121°24'377379.0
2014-Sep-20 13:33N 31°22' E 121°28'37875512.9
2014-Sep-20 13:33N 37°39' E 121°21'378379.6
2014-Sep-20 12:33N 31°22' E 121°28'37627071.2
2014-Sep-20 12:33N 37°38' E 121°24'376381.2
2014-Sep-20 11:33N 31°22' E 121°28'37775335.4
2014-Sep-20 11:33N 37°38' E 121°24'377374.4
2014-Sep-20 10:33N 31°22' E 121°28'37810631.1
2014-Sep-20 10:31N 37°40' E 121°19'378394.2
2014-Sep-20 09:33N 31°22' E 121°28'3806581.7
2014-Sep-20 09:30N 37°42' E 121°09'380406.1
2014-Sep-20 08:33N 31°22' E 121°28'0 0.0
2014-Sep-20 07:33N 31°22' E 121°28'0 0.0
2014-Sep-20 06:33N 31°22' E 121°28'0 0.0
2014-Sep-20 05:33N 31°22' E 121°28'0 0.0
2014-Sep-20 04:33N 31°22' E 121°28'0 0.0
2014-Sep-20 03:33N 31°22' E 121°28'0 0.0
2014-Sep-20 02:33N 31°22' E 121°28'0 0.0
2014-Sep-20 01:33N 31°22' E 121°28'0 0.2
2014-Sep-20 00:33N 31°21' E 121°27'0 0.1
2014-Sep-19 23:32N 31°21' E 121°28'0 0.0
2014-Sep-19 22:33N 31°21' E 121°28'3802639.3
2014-Sep-19 22:25N 37°42' E 121°09'380441.4
2014-Sep-19 21:33N 31°22' E 121°28'3862722.4
2014-Sep-19 21:24N 37°48' E 121°14'386453.3
2014-Sep-19 20:33N 31°22' E 121°28'3902640.7
2014-Sep-19 20:24N 37°51' E 121°19'390453.9
2014-Sep-19 19:33N 31°22' E 121°28'3892586.7
2014-Sep-19 19:24N 37°51' E 121°23'389458.8
2014-Sep-19 18:33N 31°22' E 121°28'3893092.5
2014-Sep-19 18:25N 37°51' E 121°26'389447.9
2014-Sep-19 17:33N 31°22' E 121°28'3893623.8
2014-Sep-19 17:27N 37°50' E 121°29'389432.4
2014-Sep-19 16:33N 31°22' E 121°28'3887591.0
2014-Sep-19 16:30N 37°50' E 121°33'5 5.5
2014-Sep-19 15:33N 37°46' E 121°38'385276901.5
2014-Sep-19 15:33N 31°22' E 121°28'380380.3
2014-Sep-19 14:33N 37°41' E 121°40'380227828.0
2014-Sep-19 14:33N 31°22' E 121°28'0 0.0
2014-Sep-19 13:33N 31°22' E 121°28'37724701.2
2014-Sep-19 13:32N 37°39' E 121°43'2 1.7
2014-Sep-19 12:33N 37°38' E 121°41'376271074.3
2014-Sep-19 12:33N 31°22' E 121°28'377377.0
2014-Sep-19 11:33N 37°38' E 121°36'377271205.6
2014-Sep-19 11:33N 31°22' E 121°28'377377.9
2014-Sep-19 10:33N 37°39' E 121°32'37729515.6
2014-Sep-19 10:33N 31°22' E 121°28'378383.0
2014-Sep-19 09:33N 37°40' E 121°22'378272284.5
2014-Sep-19 09:33N 31°22' E 121°28'0 0.0
2014-Sep-19 08:33N 31°22' E 121°28'38016694.1
2014-Sep-19 08:32N 37°42' E 121°09'380380.6
2014-Sep-19 07:32N 31°22' E 121°28'0 0.0
2014-Sep-19 06:33N 31°22' E 121°28'0 0.0
2014-Sep-19 05:33N 31°22' E 121°28'0 0.0
2014-Sep-19 04:33N 31°22' E 121°28'0 0.0
2014-Sep-19 03:33N 31°22' E 121°28'0 0.0
2014-Sep-19 02:33N 31°22' E 121°28'7267.8
2014-Sep-19 02:31N 31°15' E 121°31'7 7.4
2014-Sep-19 01:33N 31°22' E 121°28'4 7.9
2014-Sep-19 01:06N 31°21' E 121°32'3 5.0
2014-Sep-19 00:33N 31°23' E 121°30'2351.7
2014-Sep-19 00:33N 31°22' E 121°28'0 0.0
2014-Sep-18 23:33N 31°22' E 121°28'0 0.0
2014-Sep-18 22:33N 31°22' E 121°28'0 0.0
2014-Sep-18 21:33N 31°22' E 121°28'380902.6
2014-Sep-18 21:08N 37°42' E 121°09'380644.9
2014-Sep-18 20:33N 31°22' E 121°28'38036954.7
2014-Sep-18 20:32N 37°41' E 121°16'380388.1
2014-Sep-18 19:33N 31°22' E 121°28'37884952.7
2014-Sep-18 19:33N 37°39' E 121°22'3 3.0
2014-Sep-18 18:33N 37°38' E 121°25'376677561.2
2014-Sep-18 18:33N 31°22' E 121°28'377377.3
2014-Sep-18 17:33N 37°38' E 121°25'377339111.1
2014-Sep-18 17:33N 31°22' E 121°28'0 0.0
2014-Sep-18 16:33N 31°22' E 121°28'37771371.4
2014-Sep-18 16:33N 37°38' E 121°26'377378.7
2014-Sep-18 15:33N 31°22' E 121°28'37679616.1
2014-Sep-18 15:33N 37°38' E 121°30'376375.7
2014-Sep-18 14:33N 31°22' E 121°28'3779349.1
2014-Sep-18 14:31N 37°38' E 121°33'2 2.6
2014-Sep-18 13:33N 37°37' E 121°36'376112760.3
2014-Sep-18 13:33N 31°22' E 121°28'0 0.0
2014-Sep-18 12:33N 31°22' E 121°28'37733895.4
2014-Sep-18 12:33N 37°38' E 121°34'377380.7
2014-Sep-18 11:33N 31°22' E 121°28'377226261.6
2014-Sep-18 11:33N 37°39' E 121°30'4 3.6
2014-Sep-18 10:33N 37°39' E 121°25'37741166.5
2014-Sep-18 10:33N 31°22' E 121°28'378381.2
2014-Sep-18 09:33N 37°40' E 121°20'378151202.3
2014-Sep-18 09:33N 31°22' E 121°28'0 0.0
2014-Sep-18 08:33N 31°22' E 121°28'0 0.0
2014-Sep-18 07:31N 31°22' E 121°28'0 0.0
2014-Sep-18 06:33N 31°22' E 121°28'0 0.0
2014-Sep-18 05:33N 31°22' E 121°28'1 1.3
2014-Sep-18 04:33N 31°21' E 121°27'0 0.0
2014-Sep-18 03:33N 31°21' E 121°27'0 0.4
2014-Sep-18 02:33N 31°21' E 121°26'0 0.0
2014-Sep-18 01:31N 31°21' E 121°26'0 0.0
2014-Sep-18 00:33N 31°21' E 121°26'0 0.0
2014-Sep-17 23:33N 31°21' E 121°26'0 0.0
2014-Sep-17 22:33N 31°21' E 121°26'0 0.0
2014-Sep-17 21:33N 31°21' E 121°26'3813124.5
2014-Sep-17 21:26N 37°42' E 121°09'381418.3
2014-Sep-17 20:31N 31°21' E 121°26'385399.5
2014-Sep-17 19:33N 37°46' E 121°15'385198168.5
2014-Sep-17 19:33N 31°21' E 121°26'0 0.0
2014-Sep-17 18:32N 31°21' E 121°26'38413834.7
2014-Sep-17 18:31N 37°45' E 121°19'384402.3
2014-Sep-17 17:33N 31°21' E 121°26'384106261.6
2014-Sep-17 17:33N 37°45' E 121°23'384380.8
2014-Sep-17 16:33N 31°21' E 121°26'380380.3
2014-Sep-17 15:33N 37°41' E 121°31'3809851.3
2014-Sep-17 15:30N 31°21' E 121°26'377392.3
2014-Sep-17 14:33N 37°38' E 121°30'3771357416.5
2014-Sep-17 14:33N 31°21' E 121°26'378380.9
2014-Sep-17 13:33N 37°39' E 121°25'3789065.2
2014-Sep-17 13:31N 31°21' E 121°26'377393.1
2014-Sep-17 12:33N 37°38' E 121°29'37715238.9
2014-Sep-17 12:32N 31°21' E 121°26'0 0.0
2014-Sep-17 11:33N 31°21' E 121°26'377113000.6
2014-Sep-17 11:33N 37°38' E 121°25'4 3.7
2014-Sep-17 10:33N 37°39' E 121°21'379136298.9
2014-Sep-17 10:33N 31°21' E 121°26'0 0.0
2014-Sep-17 09:28N 31°21' E 121°26'3814561.3
2014-Sep-17 09:23N 37°42' E 121°12'381464.2
2014-Sep-17 08:33N 31°21' E 121°26'2 1.6
2014-Sep-17 07:33N 31°22' E 121°28'3 3.4
2014-Sep-17 06:33N 31°24' E 121°31'23 4.6
2014-Sep-17 01:29N 31°40' E 121°11'5 5.2
2014-Sep-17 00:29N 31°43' E 121°07'358117.7
2014-Sep-16 21:27N 37°42' E 121°09'3881504.3
2014-Sep-16 21:11N 31°14' E 121°29'390543.4
2014-Sep-16 20:28N 37°44' E 121°15'3871133.2
2014-Sep-16 20:08N 31°18' E 121°34'552069.5
2014-Sep-16 20:06N 31°58' E 120°51'3 5.9
2014-Sep-16 19:33N 32°00' E 120°48'55752.2
2014-Sep-16 19:28N 31°21' E 121°32'38324627.0
2014-Sep-16 19:27N 37°44' E 121°19'379420.5
2014-Sep-16 18:33N 31°24' E 121°31'37854414.7
2014-Sep-16 18:33N 37°42' E 121°22'34433511.0
2014-Sep-16 18:32N 31°60' E 120°40'6 5.9
2014-Sep-16 17:34N 32°01' E 120°33'34326842.3
2014-Sep-16 17:33N 37°41' E 121°23'343347.2
2014-Sep-16 16:33N 32°02' E 120°26'34382256.2
2014-Sep-16 16:33N 37°41' E 121°24'346348.0
2014-Sep-16 15:34N 31°58' E 120°20'34525367.7
2014-Sep-16 15:33N 37°40' E 121°23'3604576.5
2014-Sep-16 15:28N 31°40' E 121°11'5154.6
2014-Sep-16 14:32N 31°56' E 120°14'4517921.7
2014-Sep-16 14:32N 31°44' E 121°05'3566223.8
2014-Sep-16 14:28N 37°40' E 121°19'3 2.8
2014-Sep-16 13:33N 37°39' E 121°22'3483787.8
2014-Sep-16 13:27N 31°56' E 120°07'347385.1
2014-Sep-16 12:33N 37°37' E 121°25'2 2.3
2014-Sep-16 11:33N 37°37' E 121°27'3 3.4
2014-Sep-16 10:33N 37°38' E 121°24'4 3.8
2014-Sep-16 09:29N 37°40' E 121°19'34248.3
2014-Sep-16 02:24N 31°60' E 120°38'6 6.7
2014-Sep-16 01:33N 32°01' E 120°31'4 4.4
2014-Sep-16 00:33N 31°59' E 120°27'34586.0
2014-Sep-15 20:33N 37°42' E 121°15'7 6.6
2014-Sep-15 19:33N 37°40' E 121°23'4 3.8
2014-Sep-15 18:33N 37°38' E 121°27'1 0.9
2014-Sep-15 17:33N 37°37' E 121°27'1 1.3
2014-Sep-15 16:33N 37°36' E 121°27'1 1.0
2014-Sep-15 15:33N 37°37' E 121°27'1 1.0
2014-Sep-15 14:33N 37°37' E 121°26'1 0.8
2014-Sep-15 13:33N 37°38' E 121°25'0 0.3
2014-Sep-15 12:33N 37°38' E 121°24'3 2.6
2014-Sep-15 11:33N 37°37' E 121°27'4 3.9
2014-Sep-15 10:33N 37°38' E 121°23'782376.1
2014-Sep-15 08:28N 24°47' E 118°56'9 7.4
2014-Sep-15 07:16N 24°47' E 118°46'0 0.2
2014-Sep-15 05:08N 24°47' E 118°46'786101.7
2014-Sep-14 21:25N 37°43' E 121°10'4 4.6
2014-Sep-14 20:27N 37°45' E 121°15'1 0.5
2014-Sep-14 18:17N 37°46' E 121°15'3 3.5
2014-Sep-14 17:17N 37°45' E 121°19'2 3.3
2014-Sep-14 16:33N 37°44' E 121°22'5 4.8
2014-Sep-14 15:33N 37°41' E 121°26'4 3.6
2014-Sep-14 14:33N 37°37' E 121°26'3831016.5
2014-Sep-14 14:11N 31°15' E 121°31'382611.9
2014-Sep-14 13:33N 37°37' E 121°29'386919.2
2014-Sep-14 13:08N 31°10' E 121°28'387668.5
2014-Sep-14 12:33N 37°37' E 121°26'1 1.0
2014-Sep-14 11:33N 37°38' E 121°27'341614040.7
2014-Sep-14 11:33N 32°00' E 120°27'342337.1
2014-Sep-14 10:32N 37°39' E 121°24'341111584.1
2014-Sep-14 10:32N 32°01' E 120°35'4451891.7
2014-Sep-14 10:18N 24°47' E 118°46'7841039.2
2014-Sep-14 09:33N 37°40' E 121°19'78450406.1
2014-Sep-14 09:32N 24°47' E 118°46'0 0.0
2014-Sep-14 08:32N 24°47' E 118°46'4202313.8
2014-Sep-14 08:21N 31°21' E 121°30'3824584.3
2014-Sep-14 08:16N 37°43' E 121°12'381532.4
2014-Sep-14 07:33N 31°22' E 121°28'4202791.4
2014-Sep-14 07:24N 24°47' E 118°46'420494.6
2014-Sep-14 06:33N 31°22' E 121°28'0 0.0
2014-Sep-14 05:32N 31°22' E 121°28'0 0.0
2014-Sep-14 04:34N 31°22' E 121°28'918.4
2014-Sep-14 04:04N 31°31' E 121°25'4 6.5
2014-Sep-14 03:26N 31°28' E 121°29'693.2
2014-Sep-14 03:22N 31°22' E 121°28'0 0.0
2014-Sep-14 02:34N 31°22' E 121°28'384.6
2014-Sep-14 02:32N 31°23' E 121°31'3 2.7
2014-Sep-14 01:33N 31°22' E 121°28'790.1
2014-Sep-14 01:29N 31°17' E 121°34'7 1.8
2014-Sep-13 21:33N 31°22' E 121°28'0 0.0
2014-Sep-13 20:33N 31°22' E 121°28'0 0.0
2014-Sep-13 19:34N 31°22' E 121°28'0 0.0
2014-Sep-13 18:33N 31°22' E 121°28'3831018.9
2014-Sep-13 18:11N 37°45' E 121°16'383613.8
2014-Sep-13 17:33N 31°22' E 121°28'38344463.2
2014-Sep-13 17:33N 37°45' E 121°19'383386.3
2014-Sep-13 16:33N 31°22' E 121°28'38344432.5
2014-Sep-13 16:33N 37°44' E 121°24'2 2.0
2014-Sep-13 15:33N 37°42' E 121°24'3811447.0
2014-Sep-13 15:17N 31°22' E 121°28'0 0.0
2014-Sep-13 14:32N 31°22' E 121°28'37710591.8
2014-Sep-13 14:30N 37°38' E 121°23'377399.7
2014-Sep-13 13:33N 31°22' E 121°28'376451112.1
2014-Sep-13 13:33N 37°38' E 121°27'376378.2
2014-Sep-13 12:34N 31°22' E 121°28'37516465.0
2014-Sep-13 12:32N 37°37' E 121°28'783402468.9
2014-Sep-13 12:32N 24°47' E 118°46'783798.4
2014-Sep-13 11:33N 37°38' E 121°24'37633839.5
2014-Sep-13 11:33N 31°22' E 121°28'42011043.4
2014-Sep-13 11:30N 24°47' E 118°46'420442.1
2014-Sep-13 10:33N 31°22' E 121°28'3773732.9
2014-Sep-13 10:27N 37°39' E 121°19'377419.8
2014-Sep-13 09:33N 31°22' E 121°28'37922006.3
2014-Sep-13 09:32N 37°41' E 121°15'379385.5
2014-Sep-13 08:33N 31°22' E 121°28'0 0.0
2014-Sep-13 07:33N 31°22' E 121°28'0 0.0
2014-Sep-13 06:33N 31°22' E 121°28'0 0.0
2014-Sep-13 05:31N 31°22' E 121°28'4201863.3
2014-Sep-13 05:18N 24°47' E 118°46'1 1.0
2014-Sep-13 04:31N 24°47' E 118°47'42015731.3
2014-Sep-13 04:30N 31°22' E 121°28'415426.4
2014-Sep-13 03:31N 24°49' E 118°58'4152589.1
2014-Sep-13 03:22N 31°22' E 121°28'0 0.0
2014-Sep-13 02:30N 31°22' E 121°28'0 0.0
2014-Sep-13 01:27N 31°22' E 121°28'0 0.0
2014-Sep-13 00:30N 31°22' E 121°28'0 0.0
2014-Sep-12 23:25N 31°22' E 121°28'0 0.0
2014-Sep-12 22:31N 31°22' E 121°28'0 0.0
2014-Sep-12 21:33N 31°22' E 121°28'  
Track history (hours):
 
Tides and Currents Weather Stations Pressure Air Temp Water Temp Dewpoint Dewpoint Depression Visibility Wind Speed Wind Dir Waves Ship Positions

Spaceon02064

Last reported at 2014-Sep-22 21:31 UTC. Time now 2014-Sep-22 22:20 UTC.
Position N 37°44' E 121°15'.

Length 6 m.

Type: Ship. MMSI: 200902064.

Date/timePositionNaut miles runAvg speedWind from/ knotsBaromVisibWave heightAir tempDewpointWater temp
2014-Sep-22 21:31N 37°44' E 121°15'3514915.0
2014-Sep-22 21:27N 31°57' E 120°07'353396.6
2014-Sep-22 20:33N 37°45' E 121°21'35363561.6
2014-Sep-22 20:33N 31°57' E 120°12'354355.6
2014-Sep-22 19:33N 37°45' E 121°25'35184314.4
2014-Sep-22 19:33N 31°58' E 120°18'5 5.4
2014-Sep-22 18:33N 32°00' E 120°24'3495044.9
2014-Sep-22 18:29N 37°45' E 121°30'346372.2
2014-Sep-22 17:34N 32°02' E 120°30'34617805.6
2014-Sep-22 17:32N 37°44' E 121°34'347351.8
2014-Sep-22 16:33N 32°01' E 120°36'34724525.7
2014-Sep-22 16:32N 37°44' E 121°38'3 3.5
2014-Sep-22 15:33N 37°43' E 121°43'3463029.8
2014-Sep-22 15:27N 32°01' E 120°43'3 3.9
2014-Sep-22 14:33N 32°01' E 120°47'3401225153.4
2014-Sep-22 14:33N 37°38' E 121°42'4 3.7
2014-Sep-22 13:33N 37°38' E 121°37'37679654.7
2014-Sep-22 13:33N 31°22' E 121°30'5321138.6
2014-Sep-22 13:33N 32°01' E 120°48'0 0.0
2014-Sep-22 12:33N 32°01' E 120°48'34032183.1
2014-Sep-22 12:32N 37°39' E 121°33'3 3.5
2014-Sep-22 11:33N 37°39' E 121°29'34061190.0
2014-Sep-22 11:33N 32°01' E 120°48'340341.6
2014-Sep-22 10:33N 37°39' E 121°24'34071908.4
2014-Sep-22 10:33N 32°01' E 120°48'588406.6
2014-Sep-22 10:33N 31°15' E 121°29'5858.4
2014-Sep-22 09:33N 32°01' E 120°48'34064391.2
2014-Sep-22 09:32N 37°40' E 121°19'340345.3
2014-Sep-22 08:33N 32°01' E 120°48'1 1.1
2014-Sep-22 07:33N 32°00' E 120°49'23 5.7
2014-Sep-22 03:33N 31°43' E 121°08'24 5.8
2014-Sep-21 23:31N 31°28' E 121°28'3 3.0
2014-Sep-21 22:27N 31°25' E 121°31'378418.3
2014-Sep-21 21:32N 37°43' E 121°12'37912999.1
2014-Sep-21 21:31N 31°24' E 121°31'383401.3
2014-Sep-21 20:33N 37°47' E 121°23'3835699.4
2014-Sep-21 20:29N 31°24' E 121°31'0 0.0
2014-Sep-21 19:31N 31°24' E 121°31'3837380.8
2014-Sep-21 19:28N 37°48' E 121°29'3 3.1
2014-Sep-21 18:31N 37°47' E 121°32'3824012.8
2014-Sep-21 18:26N 31°24' E 121°31'381437.3
2014-Sep-21 17:33N 37°46' E 121°36'381457420.9
2014-Sep-21 17:33N 31°24' E 121°31'381381.7
2014-Sep-21 16:33N 37°46' E 121°34'38157210.8
2014-Sep-21 16:33N 31°24' E 121°31'4 3.7
2014-Sep-21 15:33N 31°22' E 121°28'3844574.8
2014-Sep-21 15:28N 37°45' E 121°33'7 7.7
2014-Sep-21 14:33N 37°39' E 121°30'377226368.9
2014-Sep-21 14:33N 31°21' E 121°27'0 0.0
2014-Sep-21 13:33N 31°21' E 121°27'37779845.4
2014-Sep-21 13:33N 37°38' E 121°33'377374.7
2014-Sep-21 12:33N 31°21' E 121°27'377193887.6
2014-Sep-21 12:33N 37°38' E 121°32'377379.8
2014-Sep-21 11:33N 31°21' E 121°27'37723785.8
2014-Sep-21 11:32N 37°38' E 121°27'4 3.6
2014-Sep-21 10:33N 37°38' E 121°23'37715603.0
2014-Sep-21 10:32N 31°21' E 121°27'0 0.0
2014-Sep-21 09:33N 31°21' E 121°27'37954509.0
2014-Sep-21 09:33N 37°40' E 121°18'379383.2
2014-Sep-21 08:33N 31°21' E 121°27'381767.5
2014-Sep-21 08:04N 37°42' E 121°09'381754.8
2014-Sep-21 07:33N 31°21' E 121°27'3818252.9
2014-Sep-21 07:31N 37°42' E 121°09'381396.9
2014-Sep-21 06:33N 31°21' E 121°27'3812681.0
2014-Sep-21 06:25N 37°42' E 121°09'381446.4
2014-Sep-21 05:33N 31°21' E 121°27'3818011.6
2014-Sep-21 05:31N 37°42' E 121°09'381399.4
2014-Sep-21 04:33N 31°21' E 121°27'0 0.0
2014-Sep-21 03:33N 31°21' E 121°27'0 0.0
2014-Sep-21 02:32N 31°21' E 121°27'0 0.0
2014-Sep-21 01:32N 31°21' E 121°27'0 0.0
2014-Sep-21 00:33N 31°21' E 121°27'0 0.0
2014-Sep-20 23:33N 31°21' E 121°27'0 0.0
2014-Sep-20 22:32N 31°21' E 121°27'0 0.1
2014-Sep-20 21:33N 31°21' E 121°27'0 0.0
2014-Sep-20 20:33N 31°21' E 121°27'38112697.3
2014-Sep-20 20:31N 37°42' E 121°14'381395.0
2014-Sep-20 19:33N 31°21' E 121°27'38135129.6
2014-Sep-20 19:33N 37°42' E 121°18'381384.6
2014-Sep-20 18:33N 31°21' E 121°27'380228217.1
2014-Sep-20 18:33N 37°42' E 121°22'380381.1
2014-Sep-20 17:33N 31°21' E 121°27'379170536.8
2014-Sep-20 17:33N 37°40' E 121°25'379377.7
2014-Sep-20 16:33N 31°21' E 121°27'37917289.0
2014-Sep-20 16:32N 37°41' E 121°22'379390.1
2014-Sep-20 15:33N 31°22' E 121°28'379195037.8
2014-Sep-20 15:33N 37°41' E 121°23'379378.4
2014-Sep-20 14:33N 31°22' E 121°28'377226218.9
2014-Sep-20 14:33N 37°39' E 121°24'377379.0
2014-Sep-20 13:33N 31°22' E 121°28'37875512.9
2014-Sep-20 13:33N 37°39' E 121°21'378379.6
2014-Sep-20 12:33N 31°22' E 121°28'37627071.2
2014-Sep-20 12:33N 37°38' E 121°24'376381.2
2014-Sep-20 11:33N 31°22' E 121°28'37775335.4
2014-Sep-20 11:33N 37°38' E 121°24'377374.4
2014-Sep-20 10:33N 31°22' E 121°28'37810631.1
2014-Sep-20 10:31N 37°40' E 121°19'378394.2
2014-Sep-20 09:33N 31°22' E 121°28'3806581.7
2014-Sep-20 09:30N 37°42' E 121°09'380406.1
2014-Sep-20 08:33N 31°22' E 121°28'0 0.0
2014-Sep-20 07:33N 31°22' E 121°28'0 0.0
2014-Sep-20 06:33N 31°22' E 121°28'0 0.0
2014-Sep-20 05:33N 31°22' E 121°28'0 0.0
2014-Sep-20 04:33N 31°22' E 121°28'0 0.0
2014-Sep-20 03:33N 31°22' E 121°28'0 0.0
2014-Sep-20 02:33N 31°22' E 121°28'0 0.0
2014-Sep-20 01:33N 31°22' E 121°28'0 0.2
2014-Sep-20 00:33N 31°21' E 121°27'0 0.1
2014-Sep-19 23:32N 31°21' E 121°28'0 0.0
2014-Sep-19 22:33N 31°21' E 121°28'3802639.3
2014-Sep-19 22:25N 37°42' E 121°09'380441.4
2014-Sep-19 21:33N 31°22' E 121°28'3862722.4
2014-Sep-19 21:24N 37°48' E 121°14'386453.3
2014-Sep-19 20:33N 31°22' E 121°28'3902640.7
2014-Sep-19 20:24N 37°51' E 121°19'390453.9
2014-Sep-19 19:33N 31°22' E 121°28'3892586.7
2014-Sep-19 19:24N 37°51' E 121°23'389458.8
2014-Sep-19 18:33N 31°22' E 121°28'3893092.5
2014-Sep-19 18:25N 37°51' E 121°26'389447.9
2014-Sep-19 17:33N 31°22' E 121°28'3893623.8
2014-Sep-19 17:27N 37°50' E 121°29'389432.4
2014-Sep-19 16:33N 31°22' E 121°28'3887591.0
2014-Sep-19 16:30N 37°50' E 121°33'5 5.5
2014-Sep-19 15:33N 37°46' E 121°38'385276901.5
2014-Sep-19 15:33N 31°22' E 121°28'380380.3
2014-Sep-19 14:33N 37°41' E 121°40'380227828.0
2014-Sep-19 14:33N 31°22' E 121°28'0 0.0
2014-Sep-19 13:33N 31°22' E 121°28'37724701.2
2014-Sep-19 13:32N 37°39' E 121°43'2 1.7
2014-Sep-19 12:33N 37°38' E 121°41'376271074.3
2014-Sep-19 12:33N 31°22' E 121°28'377377.0
2014-Sep-19 11:33N 37°38' E 121°36'377271205.6
2014-Sep-19 11:33N 31°22' E 121°28'377377.9
2014-Sep-19 10:33N 37°39' E 121°32'37729515.6
2014-Sep-19 10:33N 31°22' E 121°28'378383.0
2014-Sep-19 09:33N 37°40' E 121°22'378272284.5
2014-Sep-19 09:33N 31°22' E 121°28'0 0.0
2014-Sep-19 08:33N 31°22' E 121°28'38016694.1
2014-Sep-19 08:32N 37°42' E 121°09'380380.6
2014-Sep-19 07:32N 31°22' E 121°28'0 0.0
2014-Sep-19 06:33N 31°22' E 121°28'0 0.0
2014-Sep-19 05:33N 31°22' E 121°28'0 0.0
2014-Sep-19 04:33N 31°22' E 121°28'0 0.0
2014-Sep-19 03:33N 31°22' E 121°28'0 0.0
2014-Sep-19 02:33N 31°22' E 121°28'7267.8
2014-Sep-19 02:31N 31°15' E 121°31'7 7.4
2014-Sep-19 01:33N 31°22' E 121°28'4 7.9
2014-Sep-19 01:06N 31°21' E 121°32'3 5.0
2014-Sep-19 00:33N 31°23' E 121°30'2351.7
2014-Sep-19 00:33N 31°22' E 121°28'0 0.0
2014-Sep-18 23:33N 31°22' E 121°28'0 0.0
2014-Sep-18 22:33N 31°22' E 121°28'0 0.0
2014-Sep-18 21:33N 31°22' E 121°28'380902.6
2014-Sep-18 21:08N 37°42' E 121°09'380644.9
2014-Sep-18 20:33N 31°22' E 121°28'38036954.7
2014-Sep-18 20:32N 37°41' E 121°16'380388.1
2014-Sep-18 19:33N 31°22' E 121°28'37884952.7
2014-Sep-18 19:33N 37°39' E 121°22'3 3.0
2014-Sep-18 18:33N 37°38' E 121°25'376677561.2
2014-Sep-18 18:33N 31°22' E 121°28'377377.3
2014-Sep-18 17:33N 37°38' E 121°25'377339111.1
2014-Sep-18 17:33N 31°22' E 121°28'0 0.0
2014-Sep-18 16:33N 31°22' E 121°28'37771371.4
2014-Sep-18 16:33N 37°38' E 121°26'377378.7
2014-Sep-18 15:33N 31°22' E 121°28'37679616.1
2014-Sep-18 15:33N 37°38' E 121°30'376375.7
2014-Sep-18 14:33N 31°22' E 121°28'3779349.1
2014-Sep-18 14:31N 37°38' E 121°33'2 2.6
2014-Sep-18 13:33N 37°37' E 121°36'376112760.3
2014-Sep-18 13:33N 31°22' E 121°28'0 0.0
2014-Sep-18 12:33N 31°22' E 121°28'37733895.4
2014-Sep-18 12:33N 37°38' E 121°34'377380.7
2014-Sep-18 11:33N 31°22' E 121°28'377226261.6
2014-Sep-18 11:33N 37°39' E 121°30'4 3.6
2014-Sep-18 10:33N 37°39' E 121°25'37741166.5
2014-Sep-18 10:33N 31°22' E 121°28'378381.2
2014-Sep-18 09:33N 37°40' E 121°20'378151202.3
2014-Sep-18 09:33N 31°22' E 121°28'0 0.0
2014-Sep-18 08:33N 31°22' E 121°28'0 0.0
2014-Sep-18 07:31N 31°22' E 121°28'0 0.0
2014-Sep-18 06:33N 31°22' E 121°28'0 0.0
2014-Sep-18 05:33N 31°22' E 121°28'1 1.3
2014-Sep-18 04:33N 31°21' E 121°27'0 0.0
2014-Sep-18 03:33N 31°21' E 121°27'0 0.4
2014-Sep-18 02:33N 31°21' E 121°26'0 0.0
2014-Sep-18 01:31N 31°21' E 121°26'0 0.0
2014-Sep-18 00:33N 31°21' E 121°26'0 0.0
2014-Sep-17 23:33N 31°21' E 121°26'0 0.0
2014-Sep-17 22:33N 31°21' E 121°26'0 0.0
2014-Sep-17 21:33N 31°21' E 121°26'3813124.5
2014-Sep-17 21:26N 37°42' E 121°09'381418.3
2014-Sep-17 20:31N 31°21' E 121°26'385399.5
2014-Sep-17 19:33N 37°46' E 121°15'385198168.5
2014-Sep-17 19:33N 31°21' E 121°26'0 0.0
2014-Sep-17 18:32N 31°21' E 121°26'38413834.7
2014-Sep-17 18:31N 37°45' E 121°19'384402.3
2014-Sep-17 17:33N 31°21' E 121°26'384106261.6
2014-Sep-17 17:33N 37°45' E 121°23'384380.8
2014-Sep-17 16:33N 31°21' E 121°26'380380.3
2014-Sep-17 15:33N 37°41' E 121°31'3809851.3
2014-Sep-17 15:30N 31°21' E 121°26'377392.3
2014-Sep-17 14:33N 37°38' E 121°30'3771357416.5
2014-Sep-17 14:33N 31°21' E 121°26'378380.9
2014-Sep-17 13:33N 37°39' E 121°25'3789065.2
2014-Sep-17 13:31N 31°21' E 121°26'377393.1
2014-Sep-17 12:33N 37°38' E 121°29'37715238.9
2014-Sep-17 12:32N 31°21' E 121°26'0 0.0
2014-Sep-17 11:33N 31°21' E 121°26'377113000.6
2014-Sep-17 11:33N 37°38' E 121°25'4 3.7
2014-Sep-17 10:33N 37°39' E 121°21'379136298.9
2014-Sep-17 10:33N 31°21' E 121°26'0 0.0
2014-Sep-17 09:28N 31°21' E 121°26'3814561.3
2014-Sep-17 09:23N 37°42' E 121°12'381464.2
2014-Sep-17 08:33N 31°21' E 121°26'2 1.6
2014-Sep-17 07:33N 31°22' E 121°28'3 3.4
2014-Sep-17 06:33N 31°24' E 121°31'23 4.6
2014-Sep-17 01:29N 31°40' E 121°11'5 5.2
2014-Sep-17 00:29N 31°43' E 121°07'358117.7
2014-Sep-16 21:27N 37°42' E 121°09'3881504.3
2014-Sep-16 21:11N 31°14' E 121°29'390543.4
2014-Sep-16 20:28N 37°44' E 121°15'3871133.2
2014-Sep-16 20:08N 31°18' E 121°34'552069.5
2014-Sep-16 20:06N 31°58' E 120°51'3 5.9
2014-Sep-16 19:33N 32°00' E 120°48'55752.2
2014-Sep-16 19:28N 31°21' E 121°32'38324627.0
2014-Sep-16 19:27N 37°44' E 121°19'379420.5
2014-Sep-16 18:33N 31°24' E 121°31'37854414.7
2014-Sep-16 18:33N 37°42' E 121°22'34433511.0
2014-Sep-16 18:32N 31°60' E 120°40'6 5.9
2014-Sep-16 17:34N 32°01' E 120°33'34326842.3
2014-Sep-16 17:33N 37°41' E 121°23'343347.2
2014-Sep-16 16:33N 32°02' E 120°26'34382256.2
2014-Sep-16 16:33N 37°41' E 121°24'346348.0
2014-Sep-16 15:34N 31°58' E 120°20'34525367.7
2014-Sep-16 15:33N 37°40' E 121°23'3604576.5
2014-Sep-16 15:28N 31°40' E 121°11'5154.6
2014-Sep-16 14:32N 31°56' E 120°14'4517921.7
2014-Sep-16 14:32N 31°44' E 121°05'3566223.8
2014-Sep-16 14:28N 37°40' E 121°19'3 2.8
2014-Sep-16 13:33N 37°39' E 121°22'3483787.8
2014-Sep-16 13:27N 31°56' E 120°07'347385.1
2014-Sep-16 12:33N 37°37' E 121°25'2 2.3
2014-Sep-16 11:33N 37°37' E 121°27'3 3.4
2014-Sep-16 10:33N 37°38' E 121°24'4 3.8
2014-Sep-16 09:29N 37°40' E 121°19'34248.3
2014-Sep-16 02:24N 31°60' E 120°38'6 6.7
2014-Sep-16 01:33N 32°01' E 120°31'4 4.4
2014-Sep-16 00:33N 31°59' E 120°27'34586.0
2014-Sep-15 20:33N 37°42' E 121°15'7 6.6
2014-Sep-15 19:33N 37°40' E 121°23'4 3.8
2014-Sep-15 18:33N 37°38' E 121°27'1 0.9
2014-Sep-15 17:33N 37°37' E 121°27'1 1.3
2014-Sep-15 16:33N 37°36' E 121°27'1 1.0
2014-Sep-15 15:33N 37°37' E 121°27'1 1.0
2014-Sep-15 14:33N 37°37' E 121°26'1 0.8
2014-Sep-15 13:33N 37°38' E 121°25'0 0.3
2014-Sep-15 12:33N 37°38' E 121°24'3 2.6
2014-Sep-15 11:33N 37°37' E 121°27'4 3.9
2014-Sep-15 10:33N 37°38' E 121°23'782376.1
2014-Sep-15 08:28N 24°47' E 118°56'9 7.4
2014-Sep-15 07:16N 24°47' E 118°46'0 0.2
2014-Sep-15 05:08N 24°47' E 118°46'786101.7
2014-Sep-14 21:25N 37°43' E 121°10'4 4.6
2014-Sep-14 20:27N 37°45' E 121°15'1 0.5
2014-Sep-14 18:17N 37°46' E 121°15'3 3.5
2014-Sep-14 17:17N 37°45' E 121°19'2 3.3
2014-Sep-14 16:33N 37°44' E 121°22'5 4.8
2014-Sep-14 15:33N 37°41' E 121°26'4 3.6
2014-Sep-14 14:33N 37°37' E 121°26'3831016.5
2014-Sep-14 14:11N 31°15' E 121°31'382611.9
2014-Sep-14 13:33N 37°37' E 121°29'386919.2
2014-Sep-14 13:08N 31°10' E 121°28'387668.5
2014-Sep-14 12:33N 37°37' E 121°26'1 1.0
2014-Sep-14 11:33N 37°38' E 121°27'341614040.7
2014-Sep-14 11:33N 32°00' E 120°27'342337.1
2014-Sep-14 10:32N 37°39' E 121°24'341111584.1
2014-Sep-14 10:32N 32°01' E 120°35'4451891.7
2014-Sep-14 10:18N 24°47' E 118°46'7841039.2
2014-Sep-14 09:33N 37°40' E 121°19'78450406.1
2014-Sep-14 09:32N 24°47' E 118°46'0 0.0
2014-Sep-14 08:32N 24°47' E 118°46'4202313.8
2014-Sep-14 08:21N 31°21' E 121°30'3824584.3
2014-Sep-14 08:16N 37°43' E 121°12'381532.4
2014-Sep-14 07:33N 31°22' E 121°28'4202791.4
2014-Sep-14 07:24N 24°47' E 118°46'420494.6
2014-Sep-14 06:33N 31°22' E 121°28'0 0.0
2014-Sep-14 05:32N 31°22' E 121°28'0 0.0
2014-Sep-14 04:34N 31°22' E 121°28'918.4
2014-Sep-14 04:04N 31°31' E 121°25'4 6.5
2014-Sep-14 03:26N 31°28' E 121°29'693.2
2014-Sep-14 03:22N 31°22' E 121°28'0 0.0
2014-Sep-14 02:34N 31°22' E 121°28'384.6
2014-Sep-14 02:32N 31°23' E 121°31'3 2.7
2014-Sep-14 01:33N 31°22' E 121°28'790.1
2014-Sep-14 01:29N 31°17' E 121°34'7 1.8
2014-Sep-13 21:33N 31°22' E 121°28'0 0.0
2014-Sep-13 20:33N 31°22' E 121°28'0 0.0
2014-Sep-13 19:34N 31°22' E 121°28'0 0.0
2014-Sep-13 18:33N 31°22' E 121°28'3831018.9
2014-Sep-13 18:11N 37°45' E 121°16'383613.8
2014-Sep-13 17:33N 31°22' E 121°28'38344463.2
2014-Sep-13 17:33N 37°45' E 121°19'383386.3
2014-Sep-13 16:33N 31°22' E 121°28'38344432.5
2014-Sep-13 16:33N 37°44' E 121°24'2 2.0
2014-Sep-13 15:33N 37°42' E 121°24'3811447.0
2014-Sep-13 15:17N 31°22' E 121°28'0 0.0
2014-Sep-13 14:32N 31°22' E 121°28'37710591.8
2014-Sep-13 14:30N 37°38' E 121°23'377399.7
2014-Sep-13 13:33N 31°22' E 121°28'376451112.1
2014-Sep-13 13:33N 37°38' E 121°27'376378.2
2014-Sep-13 12:34N 31°22' E 121°28'37516465.0
2014-Sep-13 12:32N 37°37' E 121°28'783402468.9
2014-Sep-13 12:32N 24°47' E 118°46'783798.4
2014-Sep-13 11:33N 37°38' E 121°24'37633839.5
2014-Sep-13 11:33N 31°22' E 121°28'42011043.4
2014-Sep-13 11:30N 24°47' E 118°46'420442.1
2014-Sep-13 10:33N 31°22' E 121°28'3773732.9
2014-Sep-13 10:27N 37°39' E 121°19'377419.8
2014-Sep-13 09:33N 31°22' E 121°28'37922006.3
2014-Sep-13 09:32N 37°41' E 121°15'379385.5
2014-Sep-13 08:33N 31°22' E 121°28'0 0.0
2014-Sep-13 07:33N 31°22' E 121°28'0 0.0
2014-Sep-13 06:33N 31°22' E 121°28'0 0.0
2014-Sep-13 05:31N 31°22' E 121°28'4201863.3
2014-Sep-13 05:18N 24°47' E 118°46'1 1.0
2014-Sep-13 04:31N 24°47' E 118°47'42015731.3
2014-Sep-13 04:30N 31°22' E 121°28'415426.4
2014-Sep-13 03:31N 24°49' E 118°58'4152589.1
2014-Sep-13 03:22N 31°22' E 121°28'0 0.0
2014-Sep-13 02:30N 31°22' E 121°28'0 0.0
2014-Sep-13 01:27N 31°22' E 121°28'0 0.0
2014-Sep-13 00:30N 31°22' E 121°28'0 0.0
2014-Sep-12 23:25N 31°22' E 121°28'0 0.0
2014-Sep-12 22:31N 31°22' E 121°28'0 0.0
2014-Sep-12 21:33N 31°22' E 121°28'  

Dump ship's entire track history